sensor_id;sensor_type;location;lat;lon;timestamp;pressure;altitude;pressure_sealevel;temperature;humidity
10921;BME280;5513;50.580;8.818;2023-01-30T00:01:29;99546.97;;;0.27;100.00
10921;BME280;5513;50.580;8.818;2023-01-30T00:03:58;99527.00;;;0.26;100.00
10921;BME280;5513;50.580;8.818;2023-01-30T00:06:26;99509.09;;;0.06;100.00
10921;BME280;5513;50.580;8.818;2023-01-30T00:08:55;99507.19;;;0.17;100.00
10921;BME280;5513;50.580;8.818;2023-01-30T00:11:23;99492.66;;;0.04;100.00
10921;BME280;5513;50.580;8.818;2023-01-30T00:13:51;99482.97;;;0.12;100.00
10921;BME280;5513;50.580;8.818;2023-01-30T00:16:22;99476.03;;;0.13;100.00
10921;BME280;5513;50.580;8.818;2023-01-30T00:18:50;99499.53;;;0.07;100.00
10921;BME280;5513;50.580;8.818;2023-01-30T00:21:19;99473.38;;;0.14;100.00
10921;BME280;5513;50.580;8.818;2023-01-30T00:23:47;99472.44;;;0.18;100.00
10921;BME280;5513;50.580;8.818;2023-01-30T00:26:15;99488.34;;;0.03;100.00
10921;BME280;5513;50.580;8.818;2023-01-30T00:28:44;99487.34;;;0.09;100.00
10921;BME280;5513;50.580;8.818;2023-01-30T00:31:13;99473.63;;;-0.01;100.00
10921;BME280;5513;50.580;8.818;2023-01-30T00:33:44;99467.69;;;-0.08;100.00
10921;BME280;5513;50.580;8.818;2023-01-30T00:36:13;99460.63;;;-0.03;100.00
10921;BME280;5513;50.580;8.818;2023-01-30T00:38:41;99446.94;;;-0.14;100.00
10921;BME280;5513;50.580;8.818;2023-01-30T00:41:09;99440.06;;;-0.16;100.00
10921;BME280;5513;50.580;8.818;2023-01-30T00:43:39;99433.97;;;-0.15;100.00
10921;BME280;5513;50.580;8.818;2023-01-30T00:46:27;99456.56;;;-0.17;100.00
10921;BME280;5513;50.580;8.818;2023-01-30T00:49:15;99467.84;;;-0.20;100.00
10921;BME280;5513;50.580;8.818;2023-01-30T00:51:43;99458.16;;;-0.09;100.00
10921;BME280;5513;50.580;8.818;2023-01-30T00:54:12;99453.41;;;-0.39;100.00
10921;BME280;5513;50.580;8.818;2023-01-30T00:56:40;99444.28;;;-0.11;100.00
10921;BME280;5513;50.580;8.818;2023-01-30T00:59:08;99428.66;;;-0.11;100.00
10921;BME280;5513;50.580;8.818;2023-01-30T01:01:37;99424.84;;;0.12;100.00
10921;BME280;5513;50.580;8.818;2023-01-30T01:04:06;99416.19;;;0.08;100.00
10921;BME280;5513;50.580;8.818;2023-01-30T01:06:37;99425.78;;;0.06;100.00
10921;BME280;5513;50.580;8.818;2023-01-30T01:09:06;99404.19;;;-0.01;100.00
10921;BME280;5513;50.580;8.818;2023-01-30T01:11:35;99410.16;;;0.06;100.00
10921;BME280;5513;50.580;8.818;2023-01-30T01:14:04;99408.34;;;0.11;100.00
10921;BME280;5513;50.580;8.818;2023-01-30T01:16:34;99410.75;;;0.22;100.00
10921;BME280;5513;50.580;8.818;2023-01-30T01:19:06;99432.84;;;-0.02;100.00
10921;BME280;5513;50.580;8.818;2023-01-30T01:21:34;99435.00;;;0.25;100.00
10921;BME280;5513;50.580;8.818;2023-01-30T01:24:11;99429.00;;;0.22;100.00
10921;BME280;5513;50.580;8.818;2023-01-30T01:26:40;99434.22;;;0.20;100.00
10921;BME280;5513;50.580;8.818;2023-01-30T01:29:10;99425.16;;;0.41;100.00
10921;BME280;5513;50.580;8.818;2023-01-30T01:31:39;99416.00;;;0.20;100.00
10921;BME280;5513;50.580;8.818;2023-01-30T01:34:09;99402.59;;;0.40;100.00
10921;BME280;5513;50.580;8.818;2023-01-30T01:36:38;99392.25;;;0.36;100.00
10921;BME280;5513;50.580;8.818;2023-01-30T01:39:26;99397.47;;;0.36;100.00
10921;BME280;5513;50.580;8.818;2023-01-30T01:42:15;99377.41;;;0.41;100.00
10921;BME280;5513;50.580;8.818;2023-01-30T01:45:13;99380.06;;;0.38;100.00
10921;BME280;5513;50.580;8.818;2023-01-30T01:47:51;99372.03;;;0.50;100.00
10921;BME280;5513;50.580;8.818;2023-01-30T01:50:25;99366.06;;;0.43;100.00
10921;BME280;5513;50.580;8.818;2023-01-30T01:52:56;99367.78;;;0.44;100.00
10921;BME280;5513;50.580;8.818;2023-01-30T01:55:28;99351.34;;;0.41;100.00
10921;BME280;5513;50.580;8.818;2023-01-30T01:58:00;99353.06;;;0.42;100.00
10921;BME280;5513;50.580;8.818;2023-01-30T02:00:30;99363.28;;;0.52;100.00
10921;BME280;5513;50.580;8.818;2023-01-30T02:03:01;99370.22;;;0.52;100.00
10921;BME280;5513;50.580;8.818;2023-01-30T02:05:34;99352.84;;;0.52;100.00
10921;BME280;5513;50.580;8.818;2023-01-30T02:08:06;99349.16;;;0.63;100.00
10921;BME280;5513;50.580;8.818;2023-01-30T02:10:44;99348.16;;;0.70;100.00
10921;BME280;5513;50.580;8.818;2023-01-30T02:13:16;99350.31;;;0.49;100.00
10921;BME280;5513;50.580;8.818;2023-01-30T02:15:47;99345.78;;;0.57;100.00
10921;BME280;5513;50.580;8.818;2023-01-30T02:18:17;99348.34;;;0.61;100.00
10921;BME280;5513;50.580;8.818;2023-01-30T02:21:02;99344.72;;;0.68;100.00
10921;BME280;5513;50.580;8.818;2023-01-30T02:24:05;99339.56;;;0.65;100.00
10921;BME280;5513;50.580;8.818;2023-01-30T02:27:09;99340.22;;;0.74;100.00
10921;BME280;5513;50.580;8.818;2023-01-30T02:30:20;99339.63;;;0.62;100.00
10921;BME280;5513;50.580;8.818;2023-01-30T02:33:02;99342.88;;;0.73;100.00
10921;BME280;5513;50.580;8.818;2023-01-30T02:35:40;99332.56;;;0.68;100.00
10921;BME280;5513;50.580;8.818;2023-01-30T02:38:23;99343.06;;;0.64;100.00
10921;BME280;5513;50.580;8.818;2023-01-30T02:41:03;99335.91;;;0.73;100.00
10921;BME280;5513;50.580;8.818;2023-01-30T02:43:40;99338.69;;;0.64;100.00
10921;BME280;5513;50.580;8.818;2023-01-30T02:46:16;99344.84;;;0.62;100.00
10921;BME280;5513;50.580;8.818;2023-01-30T02:48:52;99343.75;;;0.72;100.00
10921;BME280;5513;50.580;8.818;2023-01-30T02:51:24;99331.63;;;0.71;100.00
10921;BME280;5513;50.580;8.818;2023-01-30T02:53:55;99327.25;;;0.71;100.00
10921;BME280;5513;50.580;8.818;2023-01-30T02:56:24;99336.84;;;0.71;100.00
10921;BME280;5513;50.580;8.818;2023-01-30T02:58:57;99328.47;;;0.97;100.00
10921;BME280;5513;50.580;8.818;2023-01-30T03:01:45;99318.56;;;1.11;100.00
10921;BME280;5513;50.580;8.818;2023-01-30T03:04:33;99299.72;;;1.35;100.00
10921;BME280;5513;50.580;8.818;2023-01-30T03:07:16;99313.63;;;1.34;100.00
10921;BME280;5513;50.580;8.818;2023-01-30T03:09:51;99315.81;;;1.17;100.00
10921;BME280;5513;50.580;8.818;2023-01-30T03:12:32;99289.56;;;1.23;100.00
10921;BME280;5513;50.580;8.818;2023-01-30T03:15:10;99284.31;;;1.25;100.00
10921;BME280;5513;50.580;8.818;2023-01-30T03:17:42;99286.25;;;1.17;100.00
10921;BME280;5513;50.580;8.818;2023-01-30T03:20:14;99285.38;;;1.18;100.00
10921;BME280;5513;50.580;8.818;2023-01-30T03:22:45;99283.19;;;1.35;100.00
10921;BME280;5513;50.580;8.818;2023-01-30T03:25:17;99298.31;;;1.56;100.00
10921;BME280;5513;50.580;8.818;2023-01-30T03:27:49;99287.75;;;1.61;100.00
10921;BME280;5513;50.580;8.818;2023-01-30T03:30:18;99283.75;;;1.48;100.00
10921;BME280;5513;50.580;8.818;2023-01-30T03:32:47;99276.88;;;1.45;100.00
10921;BME280;5513;50.580;8.818;2023-01-30T03:35:17;99285.91;;;1.30;100.00
10921;BME280;5513;50.580;8.818;2023-01-30T03:37:46;99286.94;;;1.23;100.00
10921;BME280;5513;50.580;8.818;2023-01-30T03:40:15;99281.75;;;1.57;100.00
10921;BME280;5513;50.580;8.818;2023-01-30T03:42:45;99270.75;;;1.46;100.00
10921;BME280;5513;50.580;8.818;2023-01-30T03:45:13;99275.13;;;1.44;100.00
10921;BME280;5513;50.580;8.818;2023-01-30T03:47:43;99279.81;;;1.31;100.00
10921;BME280;5513;50.580;8.818;2023-01-30T03:50:12;99278.00;;;1.33;100.00
10921;BME280;5513;50.580;8.818;2023-01-30T03:52:43;99279.66;;;1.37;100.00
10921;BME280;5513;50.580;8.818;2023-01-30T03:55:11;99268.16;;;1.44;100.00
10921;BME280;5513;50.580;8.818;2023-01-30T03:57:40;99267.34;;;1.42;100.00
10921;BME280;5513;50.580;8.818;2023-01-30T04:00:11;99255.09;;;1.46;100.00
10921;BME280;5513;50.580;8.818;2023-01-30T04:02:39;99258.31;;;1.54;100.00
10921;BME280;5513;50.580;8.818;2023-01-30T04:05:08;99238.56;;;1.46;100.00
10921;BME280;5513;50.580;8.818;2023-01-30T04:07:37;99240.91;;;1.56;100.00
10921;BME280;5513;50.580;8.818;2023-01-30T04:10:09;99238.34;;;1.53;100.00
10921;BME280;5513;50.580;8.818;2023-01-30T04:12:41;99225.84;;;1.66;100.00
10921;BME280;5513;50.580;8.818;2023-01-30T04:15:10;99221.44;;;1.68;100.00
10921;BME280;5513;50.580;8.818;2023-01-30T04:17:41;99220.66;;;1.32;100.00
10921;BME280;5513;50.580;8.818;2023-01-30T04:20:10;99213.63;;;1.34;100.00
10921;BME280;5513;50.580;8.818;2023-01-30T04:22:39;99201.38;;;1.37;100.00
10921;BME280;5513;50.580;8.818;2023-01-30T04:25:09;99212.25;;;1.53;100.00
10921;BME280;5513;50.580;8.818;2023-01-30T04:27:37;99208.72;;;1.56;100.00
10921;BME280;5513;50.580;8.818;2023-01-30T04:30:08;99206.13;;;1.56;100.00
10921;BME280;5513;50.580;8.818;2023-01-30T04:32:36;99208.75;;;1.54;100.00
10921;BME280;5513;50.580;8.818;2023-01-30T04:35:08;99206.06;;;1.57;100.00
10921;BME280;5513;50.580;8.818;2023-01-30T04:37:36;99213.00;;;1.58;100.00
10921;BME280;5513;50.580;8.818;2023-01-30T04:40:06;99207.78;;;1.58;100.00
10921;BME280;5513;50.580;8.818;2023-01-30T04:42:36;99203.63;;;1.51;100.00
10921;BME280;5513;50.580;8.818;2023-01-30T04:45:05;99191.16;;;1.61;100.00
10921;BME280;5513;50.580;8.818;2023-01-30T04:47:34;99186.25;;;1.50;100.00
10921;BME280;5513;50.580;8.818;2023-01-30T04:50:05;99183.34;;;1.61;100.00
10921;BME280;5513;50.580;8.818;2023-01-30T04:52:33;99182.28;;;1.68;100.00
10921;BME280;5513;50.580;8.818;2023-01-30T04:55:04;99197.59;;;1.49;100.00
10921;BME280;5513;50.580;8.818;2023-01-30T04:57:32;99174.84;;;1.53;100.00
10921;BME280;5513;50.580;8.818;2023-01-30T05:00:06;99174.69;;;1.59;100.00
10921;BME280;5513;50.580;8.818;2023-01-30T05:02:35;99178.91;;;1.64;100.00
10921;BME280;5513;50.580;8.818;2023-01-30T05:05:04;99162.66;;;1.53;100.00
10921;BME280;5513;50.580;8.818;2023-01-30T05:07:34;99164.81;;;1.70;100.00
10921;BME280;5513;50.580;8.818;2023-01-30T05:10:03;99160.59;;;1.66;100.00
10921;BME280;5513;50.580;8.818;2023-01-30T05:12:31;99156.03;;;1.72;100.00
10921;BME280;5513;50.580;8.818;2023-01-30T05:15:00;99157.31;;;1.89;100.00
10921;BME280;5513;50.580;8.818;2023-01-30T05:17:30;99147.41;;;2.00;100.00
10921;BME280;5513;50.580;8.818;2023-01-30T05:20:00;99144.84;;;1.98;100.00
10921;BME280;5513;50.580;8.818;2023-01-30T05:22:28;99133.59;;;1.96;100.00
10921;BME280;5513;50.580;8.818;2023-01-30T05:24:57;99137.81;;;2.00;100.00
10921;BME280;5513;50.580;8.818;2023-01-30T05:27:25;99142.13;;;2.01;100.00
10921;BME280;5513;50.580;8.818;2023-01-30T05:29:54;99142.13;;;2.01;100.00
10921;BME280;5513;50.580;8.818;2023-01-30T05:32:22;99141.22;;;2.04;100.00
10921;BME280;5513;50.580;8.818;2023-01-30T05:34:52;99147.19;;;2.08;100.00
10921;BME280;5513;50.580;8.818;2023-01-30T05:37:21;99139.25;;;2.11;100.00
10921;BME280;5513;50.580;8.818;2023-01-30T05:39:50;99130.66;;;2.07;100.00
10921;BME280;5513;50.580;8.818;2023-01-30T05:42:19;99126.38;;;2.05;100.00
10921;BME280;5513;50.580;8.818;2023-01-30T05:44:49;99116.59;;;2.11;100.00
10921;BME280;5513;50.580;8.818;2023-01-30T05:47:18;99113.97;;;2.11;100.00
10921;BME280;5513;50.580;8.818;2023-01-30T05:49:46;99114.84;;;2.12;100.00
10921;BME280;5513;50.580;8.818;2023-01-30T05:52:17;99124.97;;;2.22;100.00
10921;BME280;5513;50.580;8.818;2023-01-30T05:54:45;99111.00;;;2.23;100.00
10921;BME280;5513;50.580;8.818;2023-01-30T05:57:13;99103.81;;;2.30;100.00
10921;BME280;5513;50.580;8.818;2023-01-30T05:59:42;99112.47;;;2.32;100.00
10921;BME280;5513;50.580;8.818;2023-01-30T06:02:12;99105.53;;;2.31;100.00
10921;BME280;5513;50.580;8.818;2023-01-30T06:04:40;99106.47;;;2.28;100.00
10921;BME280;5513;50.580;8.818;2023-01-30T06:07:09;99105.50;;;2.33;100.00
10921;BME280;5513;50.580;8.818;2023-01-30T06:09:39;99091.59;;;2.32;100.00
10921;BME280;5513;50.580;8.818;2023-01-30T06:12:08;99081.94;;;2.34;100.00
10921;BME280;5513;50.580;8.818;2023-01-30T06:14:38;99073.97;;;2.37;100.00
10921;BME280;5513;50.580;8.818;2023-01-30T06:17:06;99069.50;;;2.41;100.00
10921;BME280;5513;50.580;8.818;2023-01-30T06:19:35;99098.91;;;2.47;100.00
10921;BME280;5513;50.580;8.818;2023-01-30T06:22:04;99107.19;;;2.62;100.00
10921;BME280;5513;50.580;8.818;2023-01-30T06:24:32;99109.19;;;2.53;100.00
10921;BME280;5513;50.580;8.818;2023-01-30T06:27:02;99118.88;;;2.50;100.00
10921;BME280;5513;50.580;8.818;2023-01-30T06:29:30;99122.31;;;2.52;100.00
10921;BME280;5513;50.580;8.818;2023-01-30T06:31:59;99110.94;;;2.53;100.00
10921;BME280;5513;50.580;8.818;2023-01-30T06:34:27;99111.63;;;2.58;100.00
10921;BME280;5513;50.580;8.818;2023-01-30T06:36:56;99105.66;;;2.54;100.00
10921;BME280;5513;50.580;8.818;2023-01-30T06:39:24;99123.84;;;2.57;100.00
10921;BME280;5513;50.580;8.818;2023-01-30T06:41:52;99116.84;;;2.58;100.00
10921;BME280;5513;50.580;8.818;2023-01-30T06:44:22;99107.81;;;2.68;100.00
10921;BME280;5513;50.580;8.818;2023-01-30T06:46:51;99122.88;;;2.62;100.00
10921;BME280;5513;50.580;8.818;2023-01-30T06:49:20;99111.50;;;2.63;100.00
10921;BME280;5513;50.580;8.818;2023-01-30T06:51:48;99115.66;;;2.68;100.00
10921;BME280;5513;50.580;8.818;2023-01-30T06:54:18;99114.84;;;2.66;100.00
10921;BME280;5513;50.580;8.818;2023-01-30T06:56:46;99107.91;;;2.65;100.00
10921;BME280;5513;50.580;8.818;2023-01-30T06:59:15;99115.72;;;2.67;100.00
10921;BME280;5513;50.580;8.818;2023-01-30T07:01:44;99120.88;;;2.68;100.00
10921;BME280;5513;50.580;8.818;2023-01-30T07:04:13;99136.22;;;2.79;100.00
10921;BME280;5513;50.580;8.818;2023-01-30T07:06:43;99139.75;;;2.78;100.00
10921;BME280;5513;50.580;8.818;2023-01-30T07:09:13;99145.44;;;2.64;100.00
10921;BME280;5513;50.580;8.818;2023-01-30T07:11:41;99139.19;;;2.68;100.00
10921;BME280;5513;50.580;8.818;2023-01-30T07:14:13;99132.50;;;2.59;100.00
10921;BME280;5513;50.580;8.818;2023-01-30T07:16:41;99130.41;;;2.71;100.00
10921;BME280;5513;50.580;8.818;2023-01-30T07:19:14;99128.72;;;2.68;100.00
10921;BME280;5513;50.580;8.818;2023-01-30T07:21:42;99128.00;;;2.65;100.00
10921;BME280;5513;50.580;8.818;2023-01-30T07:24:10;99120.13;;;2.65;100.00
10921;BME280;5513;50.580;8.818;2023-01-30T07:26:39;99132.19;;;2.70;100.00
10921;BME280;5513;50.580;8.818;2023-01-30T07:29:14;99161.63;;;2.75;100.00
10921;BME280;5513;50.580;8.818;2023-01-30T07:31:43;99143.38;;;2.74;100.00
10921;BME280;5513;50.580;8.818;2023-01-30T07:34:11;99147.69;;;2.75;100.00
10921;BME280;5513;50.580;8.818;2023-01-30T07:36:41;99153.66;;;2.80;100.00
10921;BME280;5513;50.580;8.818;2023-01-30T07:39:09;99150.06;;;2.82;100.00
10921;BME280;5513;50.580;8.818;2023-01-30T07:41:39;99139.56;;;2.84;100.00
10921;BME280;5513;50.580;8.818;2023-01-30T07:44:08;99141.31;;;2.83;100.00
10921;BME280;5513;50.580;8.818;2023-01-30T07:46:37;99131.00;;;2.79;100.00
10921;BME280;5513;50.580;8.818;2023-01-30T07:49:06;99123.06;;;2.82;100.00
10921;BME280;5513;50.580;8.818;2023-01-30T07:51:36;99133.53;;;2.82;100.00
10921;BME280;5513;50.580;8.818;2023-01-30T07:54:06;99128.19;;;2.85;100.00
10921;BME280;5513;50.580;8.818;2023-01-30T07:56:34;99115.09;;;2.85;100.00
10921;BME280;5513;50.580;8.818;2023-01-30T07:59:02;99101.34;;;2.80;100.00
10921;BME280;5513;50.580;8.818;2023-01-30T08:01:32;99105.56;;;2.84;100.00
10921;BME280;5513;50.580;8.818;2023-01-30T08:04:00;99097.72;;;2.84;100.00
10921;BME280;5513;50.580;8.818;2023-01-30T08:06:29;99096.59;;;2.91;100.00
10921;BME280;5513;50.580;8.818;2023-01-30T08:08:58;99097.59;;;2.87;100.00
10921;BME280;5513;50.580;8.818;2023-01-30T08:11:28;99112.19;;;2.94;100.00
10921;BME280;5513;50.580;8.818;2023-01-30T08:13:57;99104.03;;;3.03;100.00
10921;BME280;5513;50.580;8.818;2023-01-30T08:16:25;99105.91;;;3.00;100.00
10921;BME280;5513;50.580;8.818;2023-01-30T08:18:53;99092.16;;;2.93;100.00
10921;BME280;5513;50.580;8.818;2023-01-30T08:21:22;99100.63;;;3.01;100.00
10921;BME280;5513;50.580;8.818;2023-01-30T08:23:50;99097.34;;;2.95;100.00
10921;BME280;5513;50.580;8.818;2023-01-30T08:26:19;99098.72;;;3.05;100.00
10921;BME280;5513;50.580;8.818;2023-01-30T08:28:48;99098.63;;;3.08;100.00
10921;BME280;5513;50.580;8.818;2023-01-30T08:31:16;99108.28;;;3.06;100.00
10921;BME280;5513;50.580;8.818;2023-01-30T08:33:46;99115.22;;;3.07;100.00
10921;BME280;5513;50.580;8.818;2023-01-30T08:36:16;99106.47;;;3.08;100.00
10921;BME280;5513;50.580;8.818;2023-01-30T08:38:45;99092.31;;;3.13;100.00
10921;BME280;5513;50.580;8.818;2023-01-30T08:41:14;99099.22;;;2.91;100.00
10921;BME280;5513;50.580;8.818;2023-01-30T08:43:43;99105.94;;;2.98;100.00
10921;BME280;5513;50.580;8.818;2023-01-30T08:46:13;99093.63;;;3.02;100.00
10921;BME280;5513;50.580;8.818;2023-01-30T08:48:43;99098.38;;;2.89;100.00
10921;BME280;5513;50.580;8.818;2023-01-30T08:51:16;99096.66;;;2.90;100.00
10921;BME280;5513;50.580;8.818;2023-01-30T08:53:44;99096.59;;;2.91;100.00
10921;BME280;5513;50.580;8.818;2023-01-30T08:56:13;99093.94;;;2.93;100.00
10921;BME280;5513;50.580;8.818;2023-01-30T08:58:42;99093.06;;;2.92;100.00
10921;BME280;5513;50.580;8.818;2023-01-30T09:01:14;99080.59;;;3.00;100.00
10921;BME280;5513;50.580;8.818;2023-01-30T09:03:43;99091.38;;;2.91;100.00
10921;BME280;5513;50.580;8.818;2023-01-30T09:06:12;99078.59;;;3.07;100.00
10921;BME280;5513;50.580;8.818;2023-01-30T09:08:41;99070.81;;;3.05;100.00
10921;BME280;5513;50.580;8.818;2023-01-30T09:11:10;99094.47;;;3.02;100.00
10921;BME280;5513;50.580;8.818;2023-01-30T09:13:38;99095.69;;;3.17;100.00
10921;BME280;5513;50.580;8.818;2023-01-30T09:16:11;99071.28;;;3.16;100.00
10921;BME280;5513;50.580;8.818;2023-01-30T09:18:42;99091.22;;;3.21;100.00
10921;BME280;5513;50.580;8.818;2023-01-30T09:21:13;99062.44;;;3.21;100.00
10921;BME280;5513;50.580;8.818;2023-01-30T09:23:41;99060.75;;;3.18;100.00
10921;BME280;5513;50.580;8.818;2023-01-30T09:26:09;99057.28;;;3.17;100.00
10921;BME280;5513;50.580;8.818;2023-01-30T09:28:39;99064.47;;;3.12;100.00
10921;BME280;5513;50.580;8.818;2023-01-30T09:31:08;99059.75;;;3.22;100.00
10921;BME280;5513;50.580;8.818;2023-01-30T09:33:36;99077.34;;;3.19;100.00
10921;BME280;5513;50.580;8.818;2023-01-30T09:36:08;99073.41;;;3.30;100.00
10921;BME280;5513;50.580;8.818;2023-01-30T09:38:36;99077.22;;;3.22;100.00
10921;BME280;5513;50.580;8.818;2023-01-30T09:41:27;99084.03;;;3.26;100.00
10921;BME280;5513;50.580;8.818;2023-01-30T09:46:55;99090.19;;;3.25;100.00
10921;BME280;5513;50.580;8.818;2023-01-30T09:49:37;99088.41;;;3.25;100.00
10921;BME280;5513;50.580;8.818;2023-01-30T09:52:20;99089.78;;;3.12;100.00
10921;BME280;5513;50.580;8.818;2023-01-30T09:54:50;99085.59;;;3.06;100.00
10921;BME280;5513;50.580;8.818;2023-01-30T09:57:23;99087.94;;;3.14;100.00
10921;BME280;5513;50.580;8.818;2023-01-30T09:59:56;99086.13;;;3.16;100.00
10921;BME280;5513;50.580;8.818;2023-01-30T10:02:40;99088.00;;;3.12;100.00
10921;BME280;5513;50.580;8.818;2023-01-30T10:05:13;99085.72;;;3.03;100.00
10921;BME280;5513;50.580;8.818;2023-01-30T10:10:46;99098.63;;;3.08;100.00
10921;BME280;5513;50.580;8.818;2023-01-30T10:13:53;99108.88;;;3.14;100.00
10921;BME280;5513;50.580;8.818;2023-01-30T10:16:29;99114.66;;;3.24;100.00
10921;BME280;5513;50.580;8.818;2023-01-30T10:19:18;99126.09;;;3.21;100.00
10921;BME280;5513;50.580;8.818;2023-01-30T10:22:06;99121.72;;;3.22;100.00
10921;BME280;5513;50.580;8.818;2023-01-30T10:24:45;99112.22;;;3.19;100.00
10921;BME280;5513;50.580;8.818;2023-01-30T10:27:19;99109.34;;;3.25;100.00
10921;BME280;5513;50.580;8.818;2023-01-30T10:29:52;99113.75;;;3.25;100.00
10921;BME280;5513;50.580;8.818;2023-01-30T10:32:25;99103.97;;;3.30;100.00
10921;BME280;5513;50.580;8.818;2023-01-30T10:35:03;99100.72;;;3.48;100.00
10921;BME280;5513;50.580;8.818;2023-01-30T10:37:40;99098.22;;;3.68;100.00
10921;BME280;5513;50.580;8.818;2023-01-30T10:40:18;99092.44;;;3.82;100.00
10921;BME280;5513;50.580;8.818;2023-01-30T10:42:58;99100.53;;;3.99;100.00
10921;BME280;5513;50.580;8.818;2023-01-30T10:45:33;99097.19;;;3.96;100.00
10921;BME280;5513;50.580;8.818;2023-01-30T10:48:17;99089.59;;;3.88;100.00
10921;BME280;5513;50.580;8.818;2023-01-30T10:51:17;99077.81;;;3.77;100.00
10921;BME280;5513;50.580;8.818;2023-01-30T10:53:52;99088.91;;;3.83;100.00
10921;BME280;5513;50.580;8.818;2023-01-30T10:56:28;99086.19;;;3.86;100.00
10921;BME280;5513;50.580;8.818;2023-01-30T10:59:06;99077.50;;;3.84;100.00
10921;BME280;5513;50.580;8.818;2023-01-30T11:01:43;99086.69;;;3.96;100.00
10921;BME280;5513;50.580;8.818;2023-01-30T11:04:21;99085.81;;;3.95;100.00
10921;BME280;5513;50.580;8.818;2023-01-30T11:06:55;99088.41;;;3.97;100.00
10921;BME280;5513;50.580;8.818;2023-01-30T11:09:23;99073.97;;;4.09;100.00
10921;BME280;5513;50.580;8.818;2023-01-30T11:11:54;99082.53;;;4.12;100.00
10921;BME280;5513;50.580;8.818;2023-01-30T11:14:24;99079.56;;;3.99;100.00
10921;BME280;5513;50.580;8.818;2023-01-30T11:16:54;99080.97;;;4.08;100.00
10921;BME280;5513;50.580;8.818;2023-01-30T11:19:24;99079.06;;;4.12;100.00
10921;BME280;5513;50.580;8.818;2023-01-30T11:21:54;99083.59;;;4.08;100.00
10921;BME280;5513;50.580;8.818;2023-01-30T11:24:28;99078.94;;;4.15;100.00
10921;BME280;5513;50.580;8.818;2023-01-30T11:27:08;99086.41;;;4.25;100.00
10921;BME280;5513;50.580;8.818;2023-01-30T11:29:39;99093.47;;;4.23;100.00
10921;BME280;5513;50.580;8.818;2023-01-30T11:32:11;99101.22;;;4.48;100.00
10921;BME280;5513;50.580;8.818;2023-01-30T11:34:43;99091.38;;;4.53;100.00
10921;BME280;5513;50.580;8.818;2023-01-30T11:37:13;99099.94;;;4.58;100.00
10921;BME280;5513;50.580;8.818;2023-01-30T11:39:51;99105.78;;;4.65;100.00
10921;BME280;5513;50.580;8.818;2023-01-30T11:42:23;99106.44;;;4.70;100.00
10921;BME280;5513;50.580;8.818;2023-01-30T11:44:57;99101.88;;;4.75;100.00
10921;BME280;5513;50.580;8.818;2023-01-30T11:47:48;99084.91;;;4.84;100.00
10921;BME280;5513;50.580;8.818;2023-01-30T11:50:28;99083.13;;;4.84;100.00
10921;BME280;5513;50.580;8.818;2023-01-30T11:53:16;99071.31;;;4.74;100.00
10921;BME280;5513;50.580;8.818;2023-01-30T11:55:48;99076.69;;;4.92;100.00
10921;BME280;5513;50.580;8.818;2023-01-30T11:58:32;99079.59;;;5.06;100.00
10921;BME280;5513;50.580;8.818;2023-01-30T12:01:07;99066.66;;;5.22;100.00
10921;BME280;5513;50.580;8.818;2023-01-30T12:03:44;99066.91;;;5.15;100.00
10921;BME280;5513;50.580;8.818;2023-01-30T12:06:21;99071.22;;;5.37;100.00
10921;BME280;5513;50.580;8.818;2023-01-30T12:08:53;99072.59;;;5.64;100.00
10921;BME280;5513;50.580;8.818;2023-01-30T12:11:32;99066.13;;;5.92;100.00
10921;BME280;5513;50.580;8.818;2023-01-30T12:14:20;99060.00;;;5.91;100.00
10921;BME280;5513;50.580;8.818;2023-01-30T12:17:01;99057.03;;;6.18;100.00
10921;BME280;5513;50.580;8.818;2023-01-30T12:19:42;99043.56;;;6.24;100.00
10921;BME280;5513;50.580;8.818;2023-01-30T12:22:21;99033.16;;;6.40;100.00
10921;BME280;5513;50.580;8.818;2023-01-30T12:25:07;99033.22;;;6.55;100.00
10921;BME280;5513;50.580;8.818;2023-01-30T12:27:51;99039.09;;;6.43;100.00
10921;BME280;5513;50.580;8.818;2023-01-30T12:30:27;99019.53;;;6.31;100.00
10921;BME280;5513;50.580;8.818;2023-01-30T12:33:00;99024.09;;;6.28;100.00
10921;BME280;5513;50.580;8.818;2023-01-30T12:35:38;99021.59;;;6.25;100.00
10921;BME280;5513;50.580;8.818;2023-01-30T12:38:17;99018.34;;;6.20;100.00
10921;BME280;5513;50.580;8.818;2023-01-30T12:40:58;99018.47;;;6.17;100.00
10921;BME280;5513;50.580;8.818;2023-01-30T12:43:55;99020.34;;;6.15;100.00
10921;BME280;5513;50.580;8.818;2023-01-30T12:46:59;99020.50;;;6.12;100.00
10921;BME280;5513;50.580;8.818;2023-01-30T12:49:44;99020.50;;;6.12;100.00
10921;BME280;5513;50.580;8.818;2023-01-30T12:55:32;99027.63;;;5.91;100.00
10921;BME280;5513;50.580;8.818;2023-01-30T12:58:11;99039.97;;;5.89;100.00
10921;BME280;5513;50.580;8.818;2023-01-30T13:03:41;99044.28;;;5.90;100.00
10921;BME280;5513;50.580;8.818;2023-01-30T13:06:38;99034.59;;;5.92;100.00
10921;BME280;5513;50.580;8.818;2023-01-30T13:09:26;99025.25;;;6.03;100.00
10921;BME280;5513;50.580;8.818;2023-01-30T13:12:04;99028.91;;;6.01;100.00
10921;BME280;5513;50.580;8.818;2023-01-30T13:14:40;99026.19;;;6.02;100.00
10921;BME280;5513;50.580;8.818;2023-01-30T13:17:19;99035.78;;;6.03;100.00
10921;BME280;5513;50.580;8.818;2023-01-30T13:20:00;99017.09;;;6.10;100.00
10921;BME280;5513;50.580;8.818;2023-01-30T13:22:40;99010.91;;;6.11;100.00
10921;BME280;5513;50.580;8.818;2023-01-30T13:25:20;99001.00;;;6.16;100.00
10921;BME280;5513;50.580;8.818;2023-01-30T13:27:55;99008.13;;;6.14;100.00
10921;BME280;5513;50.580;8.818;2023-01-30T13:30:25;99005.78;;;6.08;100.00
10921;BME280;5513;50.580;8.818;2023-01-30T13:32:57;99021.47;;;6.63;100.00
10921;BME280;5513;50.580;8.818;2023-01-30T13:35:33;98994.91;;;6.84;100.00
10921;BME280;5513;50.580;8.818;2023-01-30T13:38:06;98995.03;;;7.16;100.00
10921;BME280;5513;50.580;8.818;2023-01-30T13:40:38;99002.59;;;7.22;100.00
10921;BME280;5513;50.580;8.818;2023-01-30T13:43:14;99011.81;;;6.80;100.00
10921;BME280;5513;50.580;8.818;2023-01-30T13:45:47;99007.38;;;6.64;100.00
10921;BME280;5513;50.580;8.818;2023-01-30T13:48:29;99014.34;;;6.99;100.00
10921;BME280;5513;50.580;8.818;2023-01-30T13:51:17;99024.69;;;7.20;100.00
10921;BME280;5513;50.580;8.818;2023-01-30T13:53:55;99018.69;;;7.00;100.00